sensor_id;sensor_type;location;lat;lon;timestamp;P1;durP1;ratioP1;P2;durP2;ratioP2
53718;SDS011;39616;48.872;9.390;2023-09-12T00:01:25;9.70;;;4.97;;
53718;SDS011;39616;48.872;9.390;2023-09-12T00:03:55;7.55;;;4.03;;
53718;SDS011;39616;48.872;9.390;2023-09-12T00:06:25;10.52;;;5.18;;
53718;SDS011;39616;48.872;9.390;2023-09-12T00:08:55;14.57;;;4.93;;
53718;SDS011;39616;48.872;9.390;2023-09-12T00:11:26;13.75;;;4.85;;
53718;SDS011;39616;48.872;9.390;2023-09-12T00:13:56;15.32;;;5.07;;
53718;SDS011;39616;48.872;9.390;2023-09-12T00:16:26;12.27;;;5.40;;
53718;SDS011;39616;48.872;9.390;2023-09-12T00:18:57;10.13;;;4.72;;
53718;SDS011;39616;48.872;9.390;2023-09-12T00:21:27;10.70;;;5.15;;
53718;SDS011;39616;48.872;9.390;2023-09-12T00:23:57;14.20;;;5.78;;
53718;SDS011;39616;48.872;9.390;2023-09-12T00:26:28;12.63;;;5.32;;
53718;SDS011;39616;48.872;9.390;2023-09-12T00:29:00;13.52;;;4.72;;
53718;SDS011;39616;48.872;9.390;2023-09-12T00:31:30;13.88;;;4.80;;
53718;SDS011;39616;48.872;9.390;2023-09-12T00:34:01;18.55;;;5.22;;
53718;SDS011;39616;48.872;9.390;2023-09-12T00:36:31;7.10;;;4.88;;
53718;SDS011;39616;48.872;9.390;2023-09-12T00:39:03;14.73;;;4.50;;
53718;SDS011;39616;48.872;9.390;2023-09-12T00:41:33;12.38;;;4.82;;
53718;SDS011;39616;48.872;9.390;2023-09-12T00:44:03;13.75;;;5.03;;
53718;SDS011;39616;48.872;9.390;2023-09-12T00:46:34;11.43;;;4.65;;
53718;SDS011;39616;48.872;9.390;2023-09-12T00:49:05;12.80;;;5.05;;
53718;SDS011;39616;48.872;9.390;2023-09-12T00:51:37;10.90;;;5.43;;
53718;SDS011;39616;48.872;9.390;2023-09-12T00:54:08;15.98;;;5.07;;
53718;SDS011;39616;48.872;9.390;2023-09-12T00:56:39;12.70;;;4.63;;
53718;SDS011;39616;48.872;9.390;2023-09-12T00:59:10;9.95;;;4.30;;
53718;SDS011;39616;48.872;9.390;2023-09-12T01:01:41;19.30;;;5.25;;
53718;SDS011;39616;48.872;9.390;2023-09-12T01:04:11;11.48;;;4.65;;
53718;SDS011;39616;48.872;9.390;2023-09-12T01:06:41;12.55;;;4.72;;
53718;SDS011;39616;48.872;9.390;2023-09-12T01:09:12;11.48;;;4.82;;
53718;SDS011;39616;48.872;9.390;2023-09-12T01:11:43;11.98;;;4.35;;
53718;SDS011;39616;48.872;9.390;2023-09-12T01:14:14;11.20;;;4.47;;
53718;SDS011;39616;48.872;9.390;2023-09-12T01:16:44;13.23;;;4.57;;
53718;SDS011;39616;48.872;9.390;2023-09-12T01:19:14;14.10;;;4.55;;
53718;SDS011;39616;48.872;9.390;2023-09-12T01:24:28;13.73;;;4.95;;
53718;SDS011;39616;48.872;9.390;2023-09-12T01:29:49;17.73;;;4.97;;
53718;SDS011;39616;48.872;9.390;2023-09-12T01:32:23;10.20;;;4.75;;
53718;SDS011;39616;48.872;9.390;2023-09-12T01:34:54;12.70;;;4.90;;
53718;SDS011;39616;48.872;9.390;2023-09-12T01:37:24;13.45;;;4.72;;
53718;SDS011;39616;48.872;9.390;2023-09-12T01:39:54;15.90;;;5.30;;
53718;SDS011;39616;48.872;9.390;2023-09-12T01:42:27;11.80;;;5.00;;
53718;SDS011;39616;48.872;9.390;2023-09-12T01:44:59;16.88;;;5.10;;
53718;SDS011;39616;48.872;9.390;2023-09-12T01:47:33;11.30;;;5.10;;
53718;SDS011;39616;48.872;9.390;2023-09-12T01:50:05;12.75;;;5.00;;
53718;SDS011;39616;48.872;9.390;2023-09-12T01:52:41;8.75;;;4.95;;
53718;SDS011;39616;48.872;9.390;2023-09-12T01:55:11;15.85;;;4.82;;
53718;SDS011;39616;48.872;9.390;2023-09-12T01:57:42;14.43;;;5.22;;
53718;SDS011;39616;48.872;9.390;2023-09-12T02:00:13;8.60;;;4.40;;
53718;SDS011;39616;48.872;9.390;2023-09-12T02:02:43;14.23;;;5.03;;
53718;SDS011;39616;48.872;9.390;2023-09-12T02:05:15;14.00;;;5.90;;
53718;SDS011;39616;48.872;9.390;2023-09-12T02:07:48;13.13;;;5.60;;
53718;SDS011;39616;48.872;9.390;2023-09-12T02:10:19;15.00;;;5.60;;
53718;SDS011;39616;48.872;9.390;2023-09-12T02:12:51;10.32;;;5.35;;
53718;SDS011;39616;48.872;9.390;2023-09-12T02:15:21;12.02;;;5.65;;
53718;SDS011;39616;48.872;9.390;2023-09-12T02:17:51;8.75;;;4.75;;
53718;SDS011;39616;48.872;9.390;2023-09-12T02:20:22;11.77;;;5.35;;
53718;SDS011;39616;48.872;9.390;2023-09-12T02:22:52;10.77;;;5.35;;
53718;SDS011;39616;48.872;9.390;2023-09-12T02:25:22;12.82;;;6.00;;
53718;SDS011;39616;48.872;9.390;2023-09-12T02:27:53;10.55;;;5.45;;
53718;SDS011;39616;48.872;9.390;2023-09-12T02:30:23;8.98;;;5.22;;
53718;SDS011;39616;48.872;9.390;2023-09-12T02:32:53;12.82;;;6.18;;
53718;SDS011;39616;48.872;9.390;2023-09-12T02:35:23;10.88;;;5.55;;
53718;SDS011;39616;48.872;9.390;2023-09-12T02:37:54;18.25;;;5.63;;
53718;SDS011;39616;48.872;9.390;2023-09-12T02:40:24;15.02;;;6.32;;
53718;SDS011;39616;48.872;9.390;2023-09-12T02:42:55;20.85;;;5.85;;
53718;SDS011;39616;48.872;9.390;2023-09-12T02:45:25;11.30;;;4.90;;
53718;SDS011;39616;48.872;9.390;2023-09-12T02:47:55;14.90;;;5.43;;
53718;SDS011;39616;48.872;9.390;2023-09-12T02:50:25;12.02;;;5.00;;
53718;SDS011;39616;48.872;9.390;2023-09-12T02:52:56;11.10;;;5.40;;
53718;SDS011;39616;48.872;9.390;2023-09-12T02:55:26;14.40;;;4.97;;
53718;SDS011;39616;48.872;9.390;2023-09-12T02:57:56;8.82;;;5.10;;
53718;SDS011;39616;48.872;9.390;2023-09-12T03:00:27;14.63;;;4.95;;
53718;SDS011;39616;48.872;9.390;2023-09-12T03:02:57;14.00;;;5.65;;
53718;SDS011;39616;48.872;9.390;2023-09-12T03:05:27;12.32;;;6.00;;
53718;SDS011;39616;48.872;9.390;2023-09-12T03:07:57;11.65;;;5.65;;
53718;SDS011;39616;48.872;9.390;2023-09-12T03:10:28;14.30;;;6.25;;
53718;SDS011;39616;48.872;9.390;2023-09-12T03:12:58;11.07;;;5.90;;
53718;SDS011;39616;48.872;9.390;2023-09-12T03:15:28;11.80;;;5.88;;
53718;SDS011;39616;48.872;9.390;2023-09-12T03:17:58;16.15;;;5.88;;
53718;SDS011;39616;48.872;9.390;2023-09-12T03:20:29;10.77;;;5.78;;
53718;SDS011;39616;48.872;9.390;2023-09-12T03:22:59;16.25;;;6.25;;
53718;SDS011;39616;48.872;9.390;2023-09-12T03:25:29;17.27;;;6.03;;
53718;SDS011;39616;48.872;9.390;2023-09-12T03:28:00;10.90;;;6.15;;
53718;SDS011;39616;48.872;9.390;2023-09-12T03:30:31;12.80;;;6.70;;
53718;SDS011;39616;48.872;9.390;2023-09-12T03:33:03;15.27;;;6.05;;
53718;SDS011;39616;48.872;9.390;2023-09-12T03:35:34;12.32;;;6.28;;
53718;SDS011;39616;48.872;9.390;2023-09-12T03:38:04;21.02;;;6.38;;
53718;SDS011;39616;48.872;9.390;2023-09-12T03:40:34;11.73;;;6.20;;
53718;SDS011;39616;48.872;9.390;2023-09-12T03:43:05;12.65;;;6.30;;
53718;SDS011;39616;48.872;9.390;2023-09-12T03:45:35;11.25;;;6.50;;
53718;SDS011;39616;48.872;9.390;2023-09-12T03:48:05;10.48;;;6.70;;
53718;SDS011;39616;48.872;9.390;2023-09-12T03:50:36;14.60;;;7.55;;
53718;SDS011;39616;48.872;9.390;2023-09-12T03:53:06;9.38;;;6.85;;
53718;SDS011;39616;48.872;9.390;2023-09-12T03:55:37;12.48;;;7.43;;
53718;SDS011;39616;48.872;9.390;2023-09-12T03:58:07;12.90;;;7.15;;
53718;SDS011;39616;48.872;9.390;2023-09-12T04:00:37;10.70;;;7.03;;
53718;SDS011;39616;48.872;9.390;2023-09-12T04:03:08;17.58;;;7.25;;
53718;SDS011;39616;48.872;9.390;2023-09-12T04:05:38;17.98;;;6.88;;
53718;SDS011;39616;48.872;9.390;2023-09-12T04:08:08;12.82;;;6.90;;
53718;SDS011;39616;48.872;9.390;2023-09-12T04:10:38;13.73;;;7.63;;
53718;SDS011;39616;48.872;9.390;2023-09-12T04:13:09;12.43;;;7.00;;
53718;SDS011;39616;48.872;9.390;2023-09-12T04:15:39;10.25;;;7.65;;
53718;SDS011;39616;48.872;9.390;2023-09-12T04:18:10;15.85;;;6.90;;
53718;SDS011;39616;48.872;9.390;2023-09-12T04:20:40;18.75;;;7.22;;
53718;SDS011;39616;48.872;9.390;2023-09-12T04:23:10;14.40;;;6.88;;
53718;SDS011;39616;48.872;9.390;2023-09-12T04:25:45;13.32;;;6.45;;
53718;SDS011;39616;48.872;9.390;2023-09-12T04:28:16;15.43;;;7.05;;
53718;SDS011;39616;48.872;9.390;2023-09-12T04:30:46;14.55;;;6.38;;
53718;SDS011;39616;48.872;9.390;2023-09-12T04:33:17;13.68;;;6.57;;
53718;SDS011;39616;48.872;9.390;2023-09-12T04:35:47;11.80;;;6.78;;
53718;SDS011;39616;48.872;9.390;2023-09-12T04:38:17;18.05;;;7.38;;
53718;SDS011;39616;48.872;9.390;2023-09-12T04:40:54;11.63;;;7.20;;
53718;SDS011;39616;48.872;9.390;2023-09-12T04:43:25;15.80;;;6.83;;
53718;SDS011;39616;48.872;9.390;2023-09-12T04:45:55;15.10;;;7.10;;
53718;SDS011;39616;48.872;9.390;2023-09-12T04:48:26;14.77;;;6.97;;
53718;SDS011;39616;48.872;9.390;2023-09-12T04:50:56;12.77;;;6.80;;
53718;SDS011;39616;48.872;9.390;2023-09-12T04:53:27;15.32;;;7.25;;
53718;SDS011;39616;48.872;9.390;2023-09-12T04:56:04;16.13;;;7.63;;
53718;SDS011;39616;48.872;9.390;2023-09-12T04:58:36;13.93;;;7.18;;
53718;SDS011;39616;48.872;9.390;2023-09-12T05:01:06;11.32;;;7.03;;
53718;SDS011;39616;48.872;9.390;2023-09-12T05:03:36;14.30;;;6.70;;
53718;SDS011;39616;48.872;9.390;2023-09-12T05:06:07;12.68;;;6.22;;
53718;SDS011;39616;48.872;9.390;2023-09-12T05:08:37;15.27;;;6.82;;
53718;SDS011;39616;48.872;9.390;2023-09-12T05:11:08;12.52;;;6.85;;
53718;SDS011;39616;48.872;9.390;2023-09-12T05:13:39;15.70;;;6.60;;
53718;SDS011;39616;48.872;9.390;2023-09-12T05:16:09;12.43;;;7.25;;
53718;SDS011;39616;48.872;9.390;2023-09-12T05:18:39;14.93;;;6.63;;
53718;SDS011;39616;48.872;9.390;2023-09-12T05:21:09;12.23;;;6.72;;
53718;SDS011;39616;48.872;9.390;2023-09-12T05:23:40;18.42;;;6.90;;
53718;SDS011;39616;48.872;9.390;2023-09-12T05:26:10;12.95;;;5.85;;
53718;SDS011;39616;48.872;9.390;2023-09-12T05:28:40;16.30;;;7.03;;
53718;SDS011;39616;48.872;9.390;2023-09-12T05:31:11;15.70;;;6.75;;
53718;SDS011;39616;48.872;9.390;2023-09-12T05:33:41;13.40;;;7.00;;
53718;SDS011;39616;48.872;9.390;2023-09-12T05:36:11;11.90;;;6.78;;
53718;SDS011;39616;48.872;9.390;2023-09-12T05:38:42;21.05;;;7.10;;
53718;SDS011;39616;48.872;9.390;2023-09-12T05:41:13;24.08;;;8.68;;
53718;SDS011;39616;48.872;9.390;2023-09-12T05:43:44;14.98;;;7.47;;
53718;SDS011;39616;48.872;9.390;2023-09-12T05:46:14;15.85;;;7.28;;
53718;SDS011;39616;48.872;9.390;2023-09-12T05:48:45;14.30;;;7.78;;
53718;SDS011;39616;48.872;9.390;2023-09-12T05:51:15;17.33;;;7.32;;
53718;SDS011;39616;48.872;9.390;2023-09-12T05:53:45;18.85;;;7.60;;
53718;SDS011;39616;48.872;9.390;2023-09-12T05:56:15;16.42;;;6.88;;
53718;SDS011;39616;48.872;9.390;2023-09-12T05:58:46;14.63;;;7.07;;
53718;SDS011;39616;48.872;9.390;2023-09-12T06:01:16;11.77;;;6.60;;
53718;SDS011;39616;48.872;9.390;2023-09-12T06:03:47;9.27;;;6.32;;
53718;SDS011;39616;48.872;9.390;2023-09-12T06:06:17;17.13;;;6.53;;
53718;SDS011;39616;48.872;9.390;2023-09-12T06:08:47;11.27;;;6.03;;
53718;SDS011;39616;48.872;9.390;2023-09-12T06:11:18;11.07;;;5.47;;
53718;SDS011;39616;48.872;9.390;2023-09-12T06:13:48;13.20;;;6.25;;
53718;SDS011;39616;48.872;9.390;2023-09-12T06:16:18;11.07;;;5.53;;
53718;SDS011;39616;48.872;9.390;2023-09-12T06:18:49;10.57;;;6.38;;
53718;SDS011;39616;48.872;9.390;2023-09-12T06:21:19;13.68;;;6.32;;
53718;SDS011;39616;48.872;9.390;2023-09-12T06:24:00;13.88;;;6.25;;
53718;SDS011;39616;48.872;9.390;2023-09-12T06:26:40;16.05;;;6.82;;
53718;SDS011;39616;48.872;9.390;2023-09-12T06:29:10;14.13;;;5.60;;
53718;SDS011;39616;48.872;9.390;2023-09-12T06:31:41;11.30;;;5.95;;
53718;SDS011;39616;48.872;9.390;2023-09-12T06:34:11;12.30;;;6.28;;
53718;SDS011;39616;48.872;9.390;2023-09-12T06:36:42;17.60;;;6.95;;
53718;SDS011;39616;48.872;9.390;2023-09-12T06:39:14;11.07;;;5.30;;
53718;SDS011;39616;48.872;9.390;2023-09-12T06:41:45;13.05;;;5.90;;
53718;SDS011;39616;48.872;9.390;2023-09-12T06:44:15;12.18;;;5.20;;
53718;SDS011;39616;48.872;9.390;2023-09-12T06:46:45;13.05;;;5.05;;
53718;SDS011;39616;48.872;9.390;2023-09-12T06:49:16;16.67;;;6.18;;
53718;SDS011;39616;48.872;9.390;2023-09-12T06:51:46;10.52;;;5.05;;
53718;SDS011;39616;48.872;9.390;2023-09-12T06:54:16;10.52;;;4.82;;
53718;SDS011;39616;48.872;9.390;2023-09-12T06:56:46;14.00;;;5.68;;
53718;SDS011;39616;48.872;9.390;2023-09-12T06:59:17;12.48;;;5.47;;
53718;SDS011;39616;48.872;9.390;2023-09-12T07:01:48;11.38;;;5.70;;
53718;SDS011;39616;48.872;9.390;2023-09-12T07:04:18;11.65;;;5.47;;
53718;SDS011;39616;48.872;9.390;2023-09-12T07:06:48;14.27;;;5.20;;
53718;SDS011;39616;48.872;9.390;2023-09-12T07:09:19;11.90;;;5.25;;
53718;SDS011;39616;48.872;9.390;2023-09-12T07:11:49;13.63;;;5.75;;
53718;SDS011;39616;48.872;9.390;2023-09-12T07:14:19;10.45;;;5.03;;
53718;SDS011;39616;48.872;9.390;2023-09-12T07:16:50;11.40;;;5.20;;
53718;SDS011;39616;48.872;9.390;2023-09-12T07:19:21;8.93;;;5.30;;
53718;SDS011;39616;48.872;9.390;2023-09-12T07:21:51;13.90;;;5.25;;
53718;SDS011;39616;48.872;9.390;2023-09-12T07:24:24;12.48;;;6.03;;
53718;SDS011;39616;48.872;9.390;2023-09-12T07:26:55;13.52;;;5.82;;
53718;SDS011;39616;48.872;9.390;2023-09-12T07:29:25;13.77;;;5.88;;
53718;SDS011;39616;48.872;9.390;2023-09-12T07:31:57;15.00;;;5.28;;
53718;SDS011;39616;48.872;9.390;2023-09-12T07:34:27;11.10;;;5.03;;
53718;SDS011;39616;48.872;9.390;2023-09-12T07:36:57;12.80;;;5.50;;
53718;SDS011;39616;48.872;9.390;2023-09-12T07:39:28;15.98;;;5.47;;
53718;SDS011;39616;48.872;9.390;2023-09-12T07:41:58;11.75;;;4.65;;
53718;SDS011;39616;48.872;9.390;2023-09-12T07:44:28;9.82;;;5.05;;
53718;SDS011;39616;48.872;9.390;2023-09-12T07:46:59;10.63;;;5.68;;
53718;SDS011;39616;48.872;9.390;2023-09-12T07:49:29;15.15;;;5.25;;
53718;SDS011;39616;48.872;9.390;2023-09-12T07:51:59;10.85;;;4.80;;
53718;SDS011;39616;48.872;9.390;2023-09-12T07:54:30;9.02;;;5.22;;
53718;SDS011;39616;48.872;9.390;2023-09-12T07:57:01;12.57;;;5.32;;
53718;SDS011;39616;48.872;9.390;2023-09-12T07:59:31;10.35;;;5.57;;
53718;SDS011;39616;48.872;9.390;2023-09-12T08:02:01;13.20;;;5.35;;
53718;SDS011;39616;48.872;9.390;2023-09-12T08:04:32;10.07;;;5.15;;
53718;SDS011;39616;48.872;9.390;2023-09-12T08:07:04;9.85;;;5.55;;
53718;SDS011;39616;48.872;9.390;2023-09-12T08:09:53;10.23;;;5.55;;
53718;SDS011;39616;48.872;9.390;2023-09-12T08:12:26;9.68;;;5.93;;
53718;SDS011;39616;48.872;9.390;2023-09-12T08:14:57;9.77;;;5.78;;
53718;SDS011;39616;48.872;9.390;2023-09-12T08:17:28;12.07;;;5.90;;
53718;SDS011;39616;48.872;9.390;2023-09-12T08:19:59;12.68;;;5.72;;
53718;SDS011;39616;48.872;9.390;2023-09-12T08:22:29;12.02;;;5.72;;
53718;SDS011;39616;48.872;9.390;2023-09-12T08:24:59;8.80;;;5.85;;
53718;SDS011;39616;48.872;9.390;2023-09-12T08:27:30;10.27;;;5.95;;
53718;SDS011;39616;48.872;9.390;2023-09-12T08:30:00;10.27;;;6.30;;
53718;SDS011;39616;48.872;9.390;2023-09-12T08:32:31;9.27;;;5.53;;
53718;SDS011;39616;48.872;9.390;2023-09-12T08:35:01;9.57;;;5.68;;
53718;SDS011;39616;48.872;9.390;2023-09-12T08:37:33;9.20;;;5.80;;
53718;SDS011;39616;48.872;9.390;2023-09-12T08:40:03;11.07;;;5.40;;
53718;SDS011;39616;48.872;9.390;2023-09-12T08:42:41;8.23;;;5.82;;
53718;SDS011;39616;48.872;9.390;2023-09-12T08:45:13;16.67;;;6.07;;
53718;SDS011;39616;48.872;9.390;2023-09-12T08:47:45;9.77;;;5.57;;
53718;SDS011;39616;48.872;9.390;2023-09-12T08:50:26;13.57;;;5.97;;
53718;SDS011;39616;48.872;9.390;2023-09-12T08:53:01;9.97;;;6.03;;
53718;SDS011;39616;48.872;9.390;2023-09-12T08:55:31;6.10;;;5.30;;
53718;SDS011;39616;48.872;9.390;2023-09-12T08:58:08;10.18;;;5.47;;
53718;SDS011;39616;48.872;9.390;2023-09-12T09:00:38;15.88;;;5.82;;
53718;SDS011;39616;48.872;9.390;2023-09-12T09:03:09;11.23;;;5.65;;
53718;SDS011;39616;48.872;9.390;2023-09-12T09:05:40;10.30;;;5.85;;
53718;SDS011;39616;48.872;9.390;2023-09-12T09:08:13;10.13;;;5.75;;
53718;SDS011;39616;48.872;9.390;2023-09-12T09:10:55;8.75;;;6.18;;
53718;SDS011;39616;48.872;9.390;2023-09-12T09:13:28;9.48;;;5.97;;
53718;SDS011;39616;48.872;9.390;2023-09-12T09:19:00;10.13;;;5.90;;
53718;SDS011;39616;48.872;9.390;2023-09-12T09:21:39;9.90;;;5.55;;
53718;SDS011;39616;48.872;9.390;2023-09-12T09:24:13;10.80;;;5.40;;
53718;SDS011;39616;48.872;9.390;2023-09-12T09:26:48;7.88;;;6.45;;
53718;SDS011;39616;48.872;9.390;2023-09-12T09:29:30;10.80;;;5.85;;
53718;SDS011;39616;48.872;9.390;2023-09-12T09:32:02;13.70;;;6.55;;
53718;SDS011;39616;48.872;9.390;2023-09-12T09:34:35;9.77;;;6.05;;
53718;SDS011;39616;48.872;9.390;2023-09-12T09:37:09;9.85;;;6.03;;
53718;SDS011;39616;48.872;9.390;2023-09-12T09:39:39;8.65;;;5.97;;
53718;SDS011;39616;48.872;9.390;2023-09-12T09:42:11;7.90;;;6.43;;
53718;SDS011;39616;48.872;9.390;2023-09-12T09:44:44;14.57;;;6.82;;
53718;SDS011;39616;48.872;9.390;2023-09-12T09:47:14;10.35;;;6.43;;
53718;SDS011;39616;48.872;9.390;2023-09-12T09:49:45;11.80;;;5.55;;
53718;SDS011;39616;48.872;9.390;2023-09-12T09:52:15;11.43;;;6.13;;
53718;SDS011;39616;48.872;9.390;2023-09-12T09:54:45;10.80;;;5.82;;
53718;SDS011;39616;48.872;9.390;2023-09-12T09:57:15;12.57;;;6.10;;
53718;SDS011;39616;48.872;9.390;2023-09-12T09:59:49;8.27;;;5.88;;
53718;SDS011;39616;48.872;9.390;2023-09-12T10:02:22;10.23;;;5.80;;
53718;SDS011;39616;48.872;9.390;2023-09-12T10:04:55;13.82;;;6.70;;
53718;SDS011;39616;48.872;9.390;2023-09-12T10:07:27;10.98;;;6.03;;
53718;SDS011;39616;48.872;9.390;2023-09-12T10:09:59;6.53;;;5.50;;
53718;SDS011;39616;48.872;9.390;2023-09-12T10:12:39;10.40;;;5.57;;
53718;SDS011;39616;48.872;9.390;2023-09-12T10:15:14;6.72;;;5.93;;
53718;SDS011;39616;48.872;9.390;2023-09-12T10:17:48;10.63;;;6.50;;
53718;SDS011;39616;48.872;9.390;2023-09-12T10:20:35;7.75;;;5.85;;
53718;SDS011;39616;48.872;9.390;2023-09-12T10:23:13;12.02;;;5.57;;
53718;SDS011;39616;48.872;9.390;2023-09-12T10:25:49;9.90;;;5.22;;
53718;SDS011;39616;48.872;9.390;2023-09-12T10:28:21;8.23;;;5.13;;
53718;SDS011;39616;48.872;9.390;2023-09-12T10:30:51;9.50;;;5.07;;
53718;SDS011;39616;48.872;9.390;2023-09-12T10:33:23;9.57;;;5.30;;
53718;SDS011;39616;48.872;9.390;2023-09-12T10:35:55;5.55;;;4.85;;
53718;SDS011;39616;48.872;9.390;2023-09-12T10:38:26;5.72;;;5.13;;
53718;SDS011;39616;48.872;9.390;2023-09-12T10:41:00;12.80;;;6.22;;
53718;SDS011;39616;48.872;9.390;2023-09-12T10:43:33;10.15;;;5.57;;
53718;SDS011;39616;48.872;9.390;2023-09-12T10:46:05;9.07;;;5.15;;
53718;SDS011;39616;48.872;9.390;2023-09-12T10:48:36;12.65;;;6.88;;
53718;SDS011;39616;48.872;9.390;2023-09-12T10:51:10;10.50;;;5.80;;
53718;SDS011;39616;48.872;9.390;2023-09-12T10:53:46;9.68;;;5.63;;
53718;SDS011;39616;48.872;9.390;2023-09-12T10:56:19;10.38;;;6.07;;
53718;SDS011;39616;48.872;9.390;2023-09-12T11:01:55;7.40;;;5.72;;
53718;SDS011;39616;48.872;9.390;2023-09-12T11:04:29;12.65;;;6.43;;
53718;SDS011;39616;48.872;9.390;2023-09-12T11:07:11;9.05;;;5.22;;
53718;SDS011;39616;48.872;9.390;2023-09-12T11:12:46;11.27;;;5.55;;
53718;SDS011;39616;48.872;9.390;2023-09-12T11:15:19;6.68;;;5.25;;
53718;SDS011;39616;48.872;9.390;2023-09-12T11:18:02;6.75;;;5.32;;
53718;SDS011;39616;48.872;9.390;2023-09-12T11:20:59;10.02;;;4.63;;
53718;SDS011;39616;48.872;9.390;2023-09-12T11:23:33;8.25;;;5.30;;
53718;SDS011;39616;48.872;9.390;2023-09-12T11:26:06;9.55;;;5.07;;
53718;SDS011;39616;48.872;9.390;2023-09-12T11:28:37;8.02;;;5.30;;
53718;SDS011;39616;48.872;9.390;2023-09-12T11:31:09;10.45;;;5.70;;
53718;SDS011;39616;48.872;9.390;2023-09-12T11:33:40;11.20;;;5.13;;
53718;SDS011;39616;48.872;9.390;2023-09-12T11:36:12;8.05;;;5.07;;
53718;SDS011;39616;48.872;9.390;2023-09-12T11:38:43;11.50;;;5.25;;
53718;SDS011;39616;48.872;9.390;2023-09-12T11:44:09;9.57;;;3.85;;
53718;SDS011;39616;48.872;9.390;2023-09-12T11:46:40;6.75;;;4.00;;
53718;SDS011;39616;48.872;9.390;2023-09-12T11:49:11;8.35;;;4.97;;
53718;SDS011;39616;48.872;9.390;2023-09-12T11:51:53;8.65;;;4.32;;
53718;SDS011;39616;48.872;9.390;2023-09-12T11:54:24;13.88;;;4.90;;
53718;SDS011;39616;48.872;9.390;2023-09-12T11:56:55;6.00;;;5.32;;
53718;SDS011;39616;48.872;9.390;2023-09-12T11:59:29;10.20;;;4.70;;
53718;SDS011;39616;48.872;9.390;2023-09-12T12:02:00;7.03;;;4.57;;
53718;SDS011;39616;48.872;9.390;2023-09-12T12:04:30;8.80;;;4.45;;
53718;SDS011;39616;48.872;9.390;2023-09-12T12:07:01;9.10;;;5.15;;
53718;SDS011;39616;48.872;9.390;2023-09-12T12:09:34;7.18;;;4.50;;
53718;SDS011;39616;48.872;9.390;2023-09-12T12:12:11;5.93;;;4.40;;
53718;SDS011;39616;48.872;9.390;2023-09-12T12:14:42;9.65;;;4.13;;
53718;SDS011;39616;48.872;9.390;2023-09-12T12:17:15;5.78;;;4.80;;
53718;SDS011;39616;48.872;9.390;2023-09-12T12:19:46;10.85;;;4.32;;
53718;SDS011;39616;48.872;9.390;2023-09-12T12:22:16;8.73;;;4.65;;
53718;SDS011;39616;48.872;9.390;2023-09-12T12:24:46;6.63;;;4.10;;
53718;SDS011;39616;48.872;9.390;2023-09-12T12:27:17;7.53;;;4.10;;
53718;SDS011;39616;48.872;9.390;2023-09-12T12:29:47;6.55;;;3.67;;
53718;SDS011;39616;48.872;9.390;2023-09-12T12:32:18;8.57;;;4.50;;
53718;SDS011;39616;48.872;9.390;2023-09-12T12:34:49;7.40;;;4.05;;
53718;SDS011;39616;48.872;9.390;2023-09-12T12:37:20;10.93;;;4.28;;
53718;SDS011;39616;48.872;9.390;2023-09-12T12:39:50;6.82;;;4.05;;
53718;SDS011;39616;48.872;9.390;2023-09-12T12:42:21;9.23;;;4.38;;
53718;SDS011;39616;48.872;9.390;2023-09-12T12:44:54;5.82;;;3.67;;
53718;SDS011;39616;48.872;9.390;2023-09-12T12:47:25;5.95;;;4.18;;
53718;SDS011;39616;48.872;9.390;2023-09-12T12:49:55;8.23;;;4.30;;
53718;SDS011;39616;48.872;9.390;2023-09-12T12:52:25;6.18;;;3.90;;
53718;SDS011;39616;48.872;9.390;2023-09-12T12:55:03;7.70;;;3.70;;
53718;SDS011;39616;48.872;9.390;2023-09-12T12:57:37;4.18;;;3.67;;
53718;SDS011;39616;48.872;9.390;2023-09-12T13:00:12;7.35;;;4.15;;
53718;SDS011;39616;48.872;9.390;2023-09-12T13:02:44;10.27;;;4.35;;
53718;SDS011;39616;48.872;9.390;2023-09-12T13:05:26;9.10;;;4.40;;
53718;SDS011;39616;48.872;9.390;2023-09-12T13:07:57;7.90;;;3.83;;
53718;SDS011;39616;48.872;9.390;2023-09-12T13:10:27;7.13;;;3.92;;
53718;SDS011;39616;48.872;9.390;2023-09-12T13:12:57;7.03;;;3.80;;
53718;SDS011;39616;48.872;9.390;2023-09-12T13:15:28;6.65;;;3.42;;
53718;SDS011;39616;48.872;9.390;2023-09-12T13:17:58;6.20;;;3.50;;
53718;SDS011;39616;48.872;9.390;2023-09-12T13:20:28;5.93;;;3.42;;
53718;SDS011;39616;48.872;9.390;2023-09-12T13:22:58;6.35;;;3.55;;
53718;SDS011;39616;48.872;9.390;2023-09-12T13:25:29;6.07;;;4.28;;
53718;SDS011;39616;48.872;9.390;2023-09-12T13:27:59;5.45;;;4.45;;
53718;SDS011;39616;48.872;9.390;2023-09-12T13:30:29;10.88;;;4.05;;
53718;SDS011;39616;48.872;9.390;2023-09-12T13:33:00;6.28;;;3.42;;
53718;SDS011;39616;48.872;9.390;2023-09-12T13:35:30;6.57;;;4.25;;
53718;SDS011;39616;48.872;9.390;2023-09-12T13:38:00;6.53;;;3.95;;
53718;SDS011;39616;48.872;9.390;2023-09-12T13:40:31;5.57;;;3.60;;
53718;SDS011;39616;48.872;9.390;2023-09-12T13:43:01;7.57;;;4.05;;
53718;SDS011;39616;48.872;9.390;2023-09-12T13:45:31;6.35;;;3.40;;
53718;SDS011;39616;48.872;9.390;2023-09-12T13:48:02;8.68;;;4.38;;
53718;SDS011;39616;48.872;9.390;2023-09-12T13:50:34;9.98;;;3.97;;
53718;SDS011;39616;48.872;9.390;2023-09-12T13:53:04;6.72;;;3.85;;
53718;SDS011;39616;48.872;9.390;2023-09-12T13:55:37;6.97;;;4.15;;
53718;SDS011;39616;48.872;9.390;2023-09-12T13:58:07;6.95;;;3.92;;
53718;SDS011;39616;48.872;9.390;2023-09-12T14:00:38;11.27;;;4.22;;
53718;SDS011;39616;48.872;9.390;2023-09-12T14:03:08;12.13;;;4.13;;
53718;SDS011;39616;48.872;9.390;2023-09-12T14:05:38;5.72;;;3.85;;
53718;SDS011;39616;48.872;9.390;2023-09-12T14:08:09;11.13;;;4.20;;
53718;SDS011;39616;48.872;9.390;2023-09-12T14:10:39;7.07;;;3.80;;
53718;SDS011;39616;48.872;9.390;2023-09-12T14:13:09;7.03;;;3.58;;
53718;SDS011;39616;48.872;9.390;2023-09-12T14:15:39;6.18;;;3.70;;
53718;SDS011;39616;48.872;9.390;2023-09-12T14:18:13;5.93;;;3.42;;
53718;SDS011;39616;48.872;9.390;2023-09-12T14:20:43;10.52;;;3.65;;
53718;SDS011;39616;48.872;9.390;2023-09-12T14:23:13;6.97;;;3.50;;
53718;SDS011;39616;48.872;9.390;2023-09-12T14:25:44;5.68;;;3.90;;
53718;SDS011;39616;48.872;9.390;2023-09-12T14:28:14;13.43;;;3.80;;
53718;SDS011;39616;48.872;9.390;2023-09-12T14:30:45;5.30;;;3.80;;
53718;SDS011;39616;48.872;9.390;2023-09-12T14:33:15;6.72;;;4.10;;
53718;SDS011;39616;48.872;9.390;2023-09-12T14:35:48;6.53;;;4.35;;
53718;SDS011;39616;48.872;9.390;2023-09-12T14:38:18;9.05;;;4.50;;
53718;SDS011;39616;48.872;9.390;2023-09-12T14:40:49;9.05;;;4.70;;
53718;SDS011;39616;48.872;9.390;2023-09-12T14:43:19;8.43;;;4.43;;
53718;SDS011;39616;48.872;9.390;2023-09-12T14:45:49;13.20;;;5.53;;
53718;SDS011;39616;48.872;9.390;2023-09-12T14:48:20;9.80;;;5.07;;
53718;SDS011;39616;48.872;9.390;2023-09-12T14:50:50;6.57;;;4.40;;
53718;SDS011;39616;48.872;9.390;2023-09-12T14:53:21;9.93;;;4.65;;
53718;SDS011;39616;48.872;9.390;2023-09-12T14:55:51;9.88;;;4.85;;
53718;SDS011;39616;48.872;9.390;2023-09-12T14:58:23;7.32;;;4.50;;
53718;SDS011;39616;48.872;9.390;2023-09-12T15:00:53;12.65;;;5.30;;
53718;SDS011;39616;48.872;9.390;2023-09-12T15:03:23;11.65;;;5.57;;
53718;SDS011;39616;48.872;9.390;2023-09-12T15:05:53;9.40;;;4.60;;
53718;SDS011;39616;48.872;9.390;2023-09-12T15:08:24;8.77;;;5.05;;
53718;SDS011;39616;48.872;9.390;2023-09-12T15:10:54;11.48;;;5.03;;
53718;SDS011;39616;48.872;9.390;2023-09-12T15:13:24;8.57;;;4.85;;
53718;SDS011;39616;48.872;9.390;2023-09-12T15:15:54;9.27;;;5.32;;
53718;SDS011;39616;48.872;9.390;2023-09-12T15:18:25;12.00;;;4.85;;
53718;SDS011;39616;48.872;9.390;2023-09-12T15:20:55;8.75;;;4.82;;